Reagan, Texas
Current Conditions -  °F | °C
As of 10:35 PM on Saturday 25 Oct 2014 (Local Time) from KT35 Reporting Station
Clear Clear  
Wind Chill: 72°   Ceiling: Unl
Heat Index: 72°   Visibility: 10mi
Dew Point: 61°   Wind: 6mph
Humidity: 68%   Direction: 160°SSE
Pressure: 30.09"   Gusts: NA
Location:  31.22°N, 96.79°W
Report Text: KT35 260335Z AUTO 16005KT 10SM CLR 22/16 A3009 RMK AO2 T02220160
Loading
Personal Weather Stations






























Interactive Weather Map
Tropical Storm Tracking
New forecast layout! Learn more

10-Day Weather Forecast

Advertisements
Track Severe Weather on mobile